sensor_id;sensor_type;location;lat;lon;timestamp;temperature;humidity
57386;DHT22;71829;56.976;21.958;2024-01-16T03:45:28;-4.20;99.90
57386;DHT22;71829;56.976;21.958;2024-01-16T03:47:56;-5.40;99.90
57386;DHT22;71829;56.976;21.958;2024-01-16T03:50:23;-4.60;99.90
57386;DHT22;71829;56.976;21.958;2024-01-16T03:52:50;-4.70;99.90
57386;DHT22;71829;56.976;21.958;2024-01-16T03:55:17;-4.80;99.90
57386;DHT22;71829;56.976;21.958;2024-01-16T03:57:44;-3.50;99.90
57386;DHT22;71829;56.976;21.958;2024-01-16T04:00:12;-4.70;99.90
57386;DHT22;71829;56.976;21.958;2024-01-16T04:02:39;-4.80;99.90
57386;DHT22;71829;56.976;21.958;2024-01-16T04:05:06;-4.80;99.90
57386;DHT22;71829;56.976;21.958;2024-01-16T04:07:34;-4.80;99.90
57386;DHT22;71829;56.976;21.958;2024-01-16T04:10:01;-4.90;99.90
57386;DHT22;71829;56.976;21.958;2024-01-16T04:12:29;-5.80;99.90
57386;DHT22;71829;56.976;21.958;2024-01-16T04:14:57;-5.10;99.90
57386;DHT22;71829;56.976;21.958;2024-01-16T04:17:24;-5.20;99.90
57386;DHT22;71829;56.976;21.958;2024-01-16T04:19:51;-5.30;99.90
57386;DHT22;71829;56.976;21.958;2024-01-16T04:22:18;-5.30;99.90
57386;DHT22;71829;56.976;21.958;2024-01-16T04:24:45;-6.80;99.90
57386;DHT22;71829;56.976;21.958;2024-01-16T04:27:13;-5.20;99.90
57386;DHT22;71829;56.976;21.958;2024-01-16T04:29:40;-5.20;99.90
57386;DHT22;71829;56.976;21.958;2024-01-16T04:32:08;-5.20;99.90
57386;DHT22;71829;56.976;21.958;2024-01-16T04:34:35;-5.20;99.90
57386;DHT22;71829;56.976;21.958;2024-01-16T04:37:02;-5.20;99.90
57386;DHT22;71829;56.976;21.958;2024-01-16T04:39:30;-5.30;99.90
57386;DHT22;71829;56.976;21.958;2024-01-16T04:41:57;-5.20;99.90
57386;DHT22;71829;56.976;21.958;2024-01-16T04:44:24;-5.00;99.90
57386;DHT22;71829;56.976;21.958;2024-01-16T04:46:51;-5.00;99.90
57386;DHT22;71829;56.976;21.958;2024-01-16T04:49:19;-6.60;99.90
57386;DHT22;71829;56.976;21.958;2024-01-16T04:51:46;-5.20;99.90
57386;DHT22;71829;56.976;21.958;2024-01-16T04:54:14;-5.30;99.90
57386;DHT22;71829;56.976;21.958;2024-01-16T04:56:41;-5.20;99.90
57386;DHT22;71829;56.976;21.958;2024-01-16T04:59:08;-5.00;99.90
57386;DHT22;71829;56.976;21.958;2024-01-16T05:01:35;-5.00;99.90
57386;DHT22;71829;56.976;21.958;2024-01-16T05:04:02;-4.90;99.90
57386;DHT22;71829;56.976;21.958;2024-01-16T05:06:30;-4.80;99.90
57386;DHT22;71829;56.976;21.958;2024-01-16T05:08:58;-4.80;99.90
57386;DHT22;71829;56.976;21.958;2024-01-16T05:11:25;-4.80;99.90
57386;DHT22;71829;56.976;21.958;2024-01-16T05:13:52;-4.90;99.90
57386;DHT22;71829;56.976;21.958;2024-01-16T05:16:25;-6.20;99.90
57386;DHT22;71829;56.976;21.958;2024-01-16T05:18:53;-4.90;99.90
57386;DHT22;71829;56.976;21.958;2024-01-16T05:21:21;-4.90;99.90
57386;DHT22;71829;56.976;21.958;2024-01-16T05:23:48;-5.00;99.90
57386;DHT22;71829;56.976;21.958;2024-01-16T05:26:15;-4.90;99.90
57386;DHT22;71829;56.976;21.958;2024-01-16T05:31:12;-4.80;99.90
57386;DHT22;71829;56.976;21.958;2024-01-16T05:33:39;-4.70;99.90
57386;DHT22;71829;56.976;21.958;2024-01-16T05:36:07;-5.70;99.90
57386;DHT22;71829;56.976;21.958;2024-01-16T05:38:34;-4.80;99.90
57386;DHT22;71829;56.976;21.958;2024-01-16T05:41:02;-4.90;99.90
57386;DHT22;71829;56.976;21.958;2024-01-16T05:43:30;-4.90;99.90
57386;DHT22;71829;56.976;21.958;2024-01-16T05:45:57;-5.00;99.90
57386;DHT22;71829;56.976;21.958;2024-01-16T05:48:25;-5.00;99.90
57386;DHT22;71829;56.976;21.958;2024-01-16T05:50:52;-5.00;99.90
57386;DHT22;71829;56.976;21.958;2024-01-16T05:53:19;-5.80;99.90
57386;DHT22;71829;56.976;21.958;2024-01-16T05:55:47;-3.70;99.90
57386;DHT22;71829;56.976;21.958;2024-01-16T05:58:14;-5.30;99.90
57386;DHT22;71829;56.976;21.958;2024-01-16T06:00:41;-5.30;99.90
57386;DHT22;71829;56.976;21.958;2024-01-16T06:03:08;-5.40;99.90
57386;DHT22;71829;56.976;21.958;2024-01-16T06:05:35;-5.40;99.90
57386;DHT22;71829;56.976;21.958;2024-01-16T06:08:06;-5.30;99.90
57386;DHT22;71829;56.976;21.958;2024-01-16T06:10:33;-2.90;99.90
57386;DHT22;71829;56.976;21.958;2024-01-16T06:13:01;-5.30;99.90
57386;DHT22;71829;56.976;21.958;2024-01-16T06:15:28;-5.30;99.90
57386;DHT22;71829;56.976;21.958;2024-01-16T06:17:55;-3.20;99.90
57386;DHT22;71829;56.976;21.958;2024-01-16T06:20:22;-5.20;99.90
57386;DHT22;71829;56.976;21.958;2024-01-16T06:22:51;-2.70;99.90
57386;DHT22;71829;56.976;21.958;2024-01-16T06:25:18;-5.40;99.90
57386;DHT22;71829;56.976;21.958;2024-01-16T06:27:45;-5.80;99.90
57386;DHT22;71829;56.976;21.958;2024-01-16T06:30:13;-5.30;99.90
57386;DHT22;71829;56.976;21.958;2024-01-16T06:32:41;-5.10;99.90
57386;DHT22;71829;56.976;21.958;2024-01-16T06:35:08;-5.10;99.90
57386;DHT22;71829;56.976;21.958;2024-01-16T06:37:36;-5.70;99.90
57386;DHT22;71829;56.976;21.958;2024-01-16T06:40:04;-5.10;99.90
57386;DHT22;71829;56.976;21.958;2024-01-16T06:42:32;-3.60;99.90
57386;DHT22;71829;56.976;21.958;2024-01-16T06:45:00;-6.00;99.90
57386;DHT22;71829;56.976;21.958;2024-01-16T06:47:27;-5.30;99.90
57386;DHT22;71829;56.976;21.958;2024-01-16T06:49:54;-3.90;99.90
57386;DHT22;71829;56.976;21.958;2024-01-16T06:52:21;-6.40;99.90
57386;DHT22;71829;56.976;21.958;2024-01-16T06:54:48;-5.10;99.90
57386;DHT22;71829;56.976;21.958;2024-01-16T06:57:16;-5.10;99.90
57386;DHT22;71829;56.976;21.958;2024-01-16T06:59:43;-3.90;99.90
57386;DHT22;71829;56.976;21.958;2024-01-16T07:02:10;-5.10;99.90
57386;DHT22;71829;56.976;21.958;2024-01-16T07:04:37;-4.00;99.90
57386;DHT22;71829;56.976;21.958;2024-01-16T07:07:05;-5.00;99.90
57386;DHT22;71829;56.976;21.958;2024-01-16T07:09:32;-4.70;99.90
57386;DHT22;71829;56.976;21.958;2024-01-16T07:12:00;-4.60;99.90
57386;DHT22;71829;56.976;21.958;2024-01-16T07:14:27;-4.50;99.90
57386;DHT22;71829;56.976;21.958;2024-01-16T07:16:55;-4.60;99.90
57386;DHT22;71829;56.976;21.958;2024-01-16T07:19:22;-4.70;99.90
57386;DHT22;71829;56.976;21.958;2024-01-16T07:21:49;-4.70;99.90
57386;DHT22;71829;56.976;21.958;2024-01-16T07:24:17;-5.50;99.90
57386;DHT22;71829;56.976;21.958;2024-01-16T07:26:44;-4.60;99.90
57386;DHT22;71829;56.976;21.958;2024-01-16T07:29:11;-3.10;99.90
57386;DHT22;71829;56.976;21.958;2024-01-16T07:31:42;-3.60;99.90
57386;DHT22;71829;56.976;21.958;2024-01-16T07:34:09;-4.40;99.90
57386;DHT22;71829;56.976;21.958;2024-01-16T07:36:36;-2.90;99.90
57386;DHT22;71829;56.976;21.958;2024-01-16T07:39:03;-4.20;99.90
57386;DHT22;71829;56.976;21.958;2024-01-16T07:41:30;-4.20;99.90
57386;DHT22;71829;56.976;21.958;2024-01-16T07:43:58;-4.30;99.90
57386;DHT22;71829;56.976;21.958;2024-01-16T07:46:25;-4.10;99.90
57386;DHT22;71829;56.976;21.958;2024-01-16T07:48:52;-1.50;99.90
57386;DHT22;71829;56.976;21.958;2024-01-16T07:51:19;-4.10;99.90
57386;DHT22;71829;56.976;21.958;2024-01-16T07:53:46;-5.30;99.90
57386;DHT22;71829;56.976;21.958;2024-01-16T07:56:17;-4.00;99.90
57386;DHT22;71829;56.976;21.958;2024-01-16T07:58:44;-4.10;99.90
57386;DHT22;71829;56.976;21.958;2024-01-16T08:01:11;-3.90;99.90
57386;DHT22;71829;56.976;21.958;2024-01-16T08:03:38;-2.80;99.90
57386;DHT22;71829;56.976;21.958;2024-01-16T08:06:06;-3.90;99.90
57386;DHT22;71829;56.976;21.958;2024-01-16T08:08:33;-2.60;99.90
57386;DHT22;71829;56.976;21.958;2024-01-16T08:11:01;-4.20;99.90
57386;DHT22;71829;56.976;21.958;2024-01-16T08:13:28;-4.20;99.90
57386;DHT22;71829;56.976;21.958;2024-01-16T08:15:55;-2.20;99.90
57386;DHT22;71829;56.976;21.958;2024-01-16T08:18:22;-5.70;99.90
57386;DHT22;71829;56.976;21.958;2024-01-16T08:20:50;-4.40;99.90
57386;DHT22;71829;56.976;21.958;2024-01-16T08:23:17;-4.30;99.90
57386;DHT22;71829;56.976;21.958;2024-01-16T08:25:44;-4.20;99.90
57386;DHT22;71829;56.976;21.958;2024-01-16T08:28:11;-4.10;99.90
57386;DHT22;71829;56.976;21.958;2024-01-16T08:30:39;-4.20;99.90
57386;DHT22;71829;56.976;21.958;2024-01-16T08:33:08;-4.10;99.90
57386;DHT22;71829;56.976;21.958;2024-01-16T08:35:35;-3.90;99.90
57386;DHT22;71829;56.976;21.958;2024-01-16T08:38:03;-3.80;99.90
57386;DHT22;71829;56.976;21.958;2024-01-16T08:40:30;-3.70;99.90
57386;DHT22;71829;56.976;21.958;2024-01-16T08:42:57;-3.60;99.90
57386;DHT22;71829;56.976;21.958;2024-01-16T08:45:25;-3.50;99.90
57386;DHT22;71829;56.976;21.958;2024-01-16T08:47:53;-3.50;99.90
57386;DHT22;71829;56.976;21.958;2024-01-16T08:50:20;-3.30;99.90
57386;DHT22;71829;56.976;21.958;2024-01-16T08:52:47;-3.50;99.90
57386;DHT22;71829;56.976;21.958;2024-01-16T08:55:15;-3.60;99.90
57386;DHT22;71829;56.976;21.958;2024-01-16T08:57:42;-3.70;99.90
57386;DHT22;71829;56.976;21.958;2024-01-16T09:00:09;-3.60;99.90
57386;DHT22;71829;56.976;21.958;2024-01-16T09:02:36;-3.60;99.90
57386;DHT22;71829;56.976;21.958;2024-01-16T09:05:04;-3.70;99.90
57386;DHT22;71829;56.976;21.958;2024-01-16T09:07:32;-3.90;99.90
57386;DHT22;71829;56.976;21.958;2024-01-16T09:09:59;-4.00;99.90
57386;DHT22;71829;56.976;21.958;2024-01-16T09:12:27;-3.90;99.90
57386;DHT22;71829;56.976;21.958;2024-01-16T09:14:54;-3.80;99.90
57386;DHT22;71829;56.976;21.958;2024-01-16T09:17:28;-3.90;99.90
57386;DHT22;71829;56.976;21.958;2024-01-16T09:19:55;-3.80;99.90
57386;DHT22;71829;56.976;21.958;2024-01-16T09:22:23;-3.60;99.90
57386;DHT22;71829;56.976;21.958;2024-01-16T09:24:51;-3.50;99.90
57386;DHT22;71829;56.976;21.958;2024-01-16T09:27:23;-3.50;99.90
57386;DHT22;71829;56.976;21.958;2024-01-16T09:29:51;-3.20;99.90
57386;DHT22;71829;56.976;21.958;2024-01-16T09:32:18;-3.30;99.90
57386;DHT22;71829;56.976;21.958;2024-01-16T09:34:46;-3.00;99.90
57386;DHT22;71829;56.976;21.958;2024-01-16T09:37:13;-3.00;99.90
57386;DHT22;71829;56.976;21.958;2024-01-16T09:39:41;-2.90;99.90
57386;DHT22;71829;56.976;21.958;2024-01-16T09:42:09;-2.90;99.90
57386;DHT22;71829;56.976;21.958;2024-01-16T09:44:38;-3.10;99.90
57386;DHT22;71829;56.976;21.958;2024-01-16T09:47:06;-3.00;99.90
57386;DHT22;71829;56.976;21.958;2024-01-16T09:49:34;-3.30;99.90
57386;DHT22;71829;56.976;21.958;2024-01-16T09:52:02;-3.30;99.90
57386;DHT22;71829;56.976;21.958;2024-01-16T09:54:30;-3.10;99.90
57386;DHT22;71829;56.976;21.958;2024-01-16T09:56:58;-3.00;99.90
57386;DHT22;71829;56.976;21.958;2024-01-16T09:59:27;-2.90;99.90
57386;DHT22;71829;56.976;21.958;2024-01-16T10:01:56;-2.90;99.90
57386;DHT22;71829;56.976;21.958;2024-01-16T10:04:23;-3.00;99.90
57386;DHT22;71829;56.976;21.958;2024-01-16T10:06:51;-3.00;99.90
57386;DHT22;71829;56.976;21.958;2024-01-16T10:09:21;-3.00;99.90
57386;DHT22;71829;56.976;21.958;2024-01-16T10:11:48;-2.90;99.90
57386;DHT22;71829;56.976;21.958;2024-01-16T10:14:18;-2.90;99.90
57386;DHT22;71829;56.976;21.958;2024-01-16T10:17:01;-3.00;99.90
57386;DHT22;71829;56.976;21.958;2024-01-16T10:19:51;-3.00;99.90
57386;DHT22;71829;56.976;21.958;2024-01-16T10:22:23;-2.50;99.90
57386;DHT22;71829;56.976;21.958;2024-01-16T10:25:12;-2.50;99.90
57386;DHT22;71829;56.976;21.958;2024-01-16T10:27:44;-2.60;99.90
57386;DHT22;71829;56.976;21.958;2024-01-16T10:30:11;-2.60;99.90
57386;DHT22;71829;56.976;21.958;2024-01-16T10:32:41;-2.80;99.90
57386;DHT22;71829;56.976;21.958;2024-01-16T10:35:10;-3.10;99.90
57386;DHT22;71829;56.976;21.958;2024-01-16T10:40:14;-3.50;99.90
57386;DHT22;71829;56.976;21.958;2024-01-16T10:42:41;-3.20;99.90
57386;DHT22;71829;56.976;21.958;2024-01-16T10:45:08;-3.10;99.90
57386;DHT22;71829;56.976;21.958;2024-01-16T10:47:35;-3.00;99.90
57386;DHT22;71829;56.976;21.958;2024-01-16T10:50:05;-3.30;99.90
57386;DHT22;71829;56.976;21.958;2024-01-16T10:52:34;-3.40;99.90
57386;DHT22;71829;56.976;21.958;2024-01-16T10:55:03;-3.30;99.90
57386;DHT22;71829;56.976;21.958;2024-01-16T10:57:34;-2.60;99.90
57386;DHT22;71829;56.976;21.958;2024-01-16T11:00:09;-3.60;99.90
57386;DHT22;71829;56.976;21.958;2024-01-16T11:03:19;-3.70;99.90
57386;DHT22;71829;56.976;21.958;2024-01-16T11:05:51;-3.80;99.90
57386;DHT22;71829;56.976;21.958;2024-01-16T11:08:19;-3.70;99.90
57386;DHT22;71829;56.976;21.958;2024-01-16T11:10:48;-3.70;99.90
57386;DHT22;71829;56.976;21.958;2024-01-16T11:13:17;-3.60;99.90
57386;DHT22;71829;56.976;21.958;2024-01-16T11:15:47;-3.80;99.90
57386;DHT22;71829;56.976;21.958;2024-01-16T11:18:17;-3.80;99.90
57386;DHT22;71829;56.976;21.958;2024-01-16T11:20:45;-5.40;99.90
57386;DHT22;71829;56.976;21.958;2024-01-16T11:23:32;-2.50;99.90
57386;DHT22;71829;56.976;21.958;2024-01-16T11:25:59;-4.30;99.90
57386;DHT22;71829;56.976;21.958;2024-01-16T11:28:28;-3.10;99.90
57386;DHT22;71829;56.976;21.958;2024-01-16T11:31:32;-4.00;99.90
57386;DHT22;71829;56.976;21.958;2024-01-16T11:34:00;-3.90;99.90
57386;DHT22;71829;56.976;21.958;2024-01-16T11:36:50;-4.10;99.90
57386;DHT22;71829;56.976;21.958;2024-01-16T11:39:23;-5.20;99.90
57386;DHT22;71829;56.976;21.958;2024-01-16T11:42:00;-4.40;99.90
57386;DHT22;71829;56.976;21.958;2024-01-16T11:44:46;-4.90;99.90
57386;DHT22;71829;56.976;21.958;2024-01-16T11:47:22;-4.30;99.90
57386;DHT22;71829;56.976;21.958;2024-01-16T11:52:44;-4.40;99.90
57386;DHT22;71829;56.976;21.958;2024-01-16T11:55:30;-4.30;99.90
57386;DHT22;71829;56.976;21.958;2024-01-16T12:01:05;-4.30;99.90
57386;DHT22;71829;56.976;21.958;2024-01-16T12:03:33;-4.30;99.90
57386;DHT22;71829;56.976;21.958;2024-01-16T12:06:02;-4.40;99.90
57386;DHT22;71829;56.976;21.958;2024-01-16T12:08:30;-4.90;99.90
57386;DHT22;71829;56.976;21.958;2024-01-16T12:10:58;-4.30;99.90
57386;DHT22;71829;56.976;21.958;2024-01-16T12:13:26;-5.30;99.90
57386;DHT22;71829;56.976;21.958;2024-01-16T12:16:00;-4.60;99.90
57386;DHT22;71829;56.976;21.958;2024-01-16T12:18:28;-4.90;99.90
57386;DHT22;71829;56.976;21.958;2024-01-16T12:21:10;-4.50;99.90
57386;DHT22;71829;56.976;21.958;2024-01-16T12:23:37;-5.30;99.90
57386;DHT22;71829;56.976;21.958;2024-01-16T12:26:22;-4.70;99.90
57386;DHT22;71829;56.976;21.958;2024-01-16T12:28:53;-4.60;99.90
57386;DHT22;71829;56.976;21.958;2024-01-16T12:31:27;-4.60;99.90
57386;DHT22;71829;56.976;21.958;2024-01-16T12:34:08;-4.70;99.90
57386;DHT22;71829;56.976;21.958;2024-01-16T12:36:36;-4.60;99.90
57386;DHT22;71829;56.976;21.958;2024-01-16T12:39:05;-6.00;99.90
57386;DHT22;71829;56.976;21.958;2024-01-16T12:41:44;-4.60;99.90
57386;DHT22;71829;56.976;21.958;2024-01-16T12:44:12;-4.70;99.90
57386;DHT22;71829;56.976;21.958;2024-01-16T12:46:53;-4.40;99.90
57386;DHT22;71829;56.976;21.958;2024-01-16T12:49:20;-4.20;99.90
57386;DHT22;71829;56.976;21.958;2024-01-16T12:51:49;-4.10;99.90
57386;DHT22;71829;56.976;21.958;2024-01-16T12:54:18;-4.80;99.90
57386;DHT22;71829;56.976;21.958;2024-01-16T12:56:46;-4.20;99.90
57386;DHT22;71829;56.976;21.958;2024-01-16T12:59:14;-4.30;99.90
57386;DHT22;71829;56.976;21.958;2024-01-16T13:01:43;-5.00;99.90
57386;DHT22;71829;56.976;21.958;2024-01-16T13:04:12;-4.40;99.90
57386;DHT22;71829;56.976;21.958;2024-01-16T13:06:41;-4.30;99.90
57386;DHT22;71829;56.976;21.958;2024-01-16T13:09:11;-4.30;99.90
57386;DHT22;71829;56.976;21.958;2024-01-16T13:11:50;-4.20;99.90
57386;DHT22;71829;56.976;21.958;2024-01-16T13:14:19;-4.70;99.90
57386;DHT22;71829;56.976;21.958;2024-01-16T13:16:49;-4.20;99.90
57386;DHT22;71829;56.976;21.958;2024-01-16T13:19:20;-4.20;99.90
57386;DHT22;71829;56.976;21.958;2024-01-16T13:21:49;-4.20;99.90
57386;DHT22;71829;56.976;21.958;2024-01-16T13:24:16;-5.10;99.90
57386;DHT22;71829;56.976;21.958;2024-01-16T13:26:51;-2.60;99.90
57386;DHT22;71829;56.976;21.958;2024-01-16T13:29:19;-5.10;99.90
57386;DHT22;71829;56.976;21.958;2024-01-16T13:31:47;-4.40;99.90
57386;DHT22;71829;56.976;21.958;2024-01-16T13:34:15;-4.30;99.90
57386;DHT22;71829;56.976;21.958;2024-01-16T13:36:45;-4.80;99.90
57386;DHT22;71829;56.976;21.958;2024-01-16T13:39:32;-4.20;99.90
57386;DHT22;71829;56.976;21.958;2024-01-16T13:42:05;-4.50;99.90
57386;DHT22;71829;56.976;21.958;2024-01-16T13:44:34;-5.30;99.90
57386;DHT22;71829;56.976;21.958;2024-01-16T13:47:01;-5.90;99.90
57386;DHT22;71829;56.976;21.958;2024-01-16T13:49:37;-4.70;99.90
57386;DHT22;71829;56.976;21.958;2024-01-16T13:52:05;-4.70;99.90
57386;DHT22;71829;56.976;21.958;2024-01-16T13:54:35;-4.70;99.90
57386;DHT22;71829;56.976;21.958;2024-01-16T13:57:02;-4.80;99.90
57386;DHT22;71829;56.976;21.958;2024-01-16T13:59:35;-5.70;99.90
57386;DHT22;71829;56.976;21.958;2024-01-16T14:02:03;-4.70;99.90
57386;DHT22;71829;56.976;21.958;2024-01-16T14:04:35;-4.60;99.90
57386;DHT22;71829;56.976;21.958;2024-01-16T14:07:03;-4.60;99.90
57386;DHT22;71829;56.976;21.958;2024-01-16T14:09:40;-4.60;99.90
57386;DHT22;71829;56.976;21.958;2024-01-16T14:12:12;-4.60;99.90
57386;DHT22;71829;56.976;21.958;2024-01-16T14:14:41;-2.00;99.90
57386;DHT22;71829;56.976;21.958;2024-01-16T14:17:09;-4.80;99.90
57386;DHT22;71829;56.976;21.958;2024-01-16T14:19:37;-4.70;99.90
57386;DHT22;71829;56.976;21.958;2024-01-16T14:22:05;-4.80;99.90
57386;DHT22;71829;56.976;21.958;2024-01-16T14:24:33;-4.90;99.90
57386;DHT22;71829;56.976;21.958;2024-01-16T14:27:00;-5.00;99.90
57386;DHT22;71829;56.976;21.958;2024-01-16T14:29:28;-3.10;99.90
57386;DHT22;71829;56.976;21.958;2024-01-16T14:31:56;-5.30;99.90
57386;DHT22;71829;56.976;21.958;2024-01-16T14:34:25;-5.30;99.90
57386;DHT22;71829;56.976;21.958;2024-01-16T14:36:53;-5.30;99.90
57386;DHT22;71829;56.976;21.958;2024-01-16T14:39:21;-5.40;99.90
57386;DHT22;71829;56.976;21.958;2024-01-16T14:41:53;-5.50;99.90
57386;DHT22;71829;56.976;21.958;2024-01-16T14:44:21;-6.80;99.90
57386;DHT22;71829;56.976;21.958;2024-01-16T14:46:49;-5.70;99.90
57386;DHT22;71829;56.976;21.958;2024-01-16T14:49:19;-5.80;99.90
57386;DHT22;71829;56.976;21.958;2024-01-16T14:51:48;-5.10;99.90
57386;DHT22;71829;56.976;21.958;2024-01-16T14:54:16;-5.90;99.90
57386;DHT22;71829;56.976;21.958;2024-01-16T14:56:43;-5.90;99.90
57386;DHT22;71829;56.976;21.958;2024-01-16T15:01:42;-6.20;99.90
57386;DHT22;71829;56.976;21.958;2024-01-16T15:04:10;-6.10;99.90
57386;DHT22;71829;56.976;21.958;2024-01-16T15:06:39;-6.00;99.90
57386;DHT22;71829;56.976;21.958;2024-01-16T15:09:06;-6.30;99.90
57386;DHT22;71829;56.976;21.958;2024-01-16T15:11:37;-7.80;99.90
57386;DHT22;71829;56.976;21.958;2024-01-16T15:14:05;-6.30;99.90
57386;DHT22;71829;56.976;21.958;2024-01-16T15:16:32;-6.50;99.90
57386;DHT22;71829;56.976;21.958;2024-01-16T15:18:59;-6.50;99.90
57386;DHT22;71829;56.976;21.958;2024-01-16T15:21:26;-6.40;99.90
57386;DHT22;71829;56.976;21.958;2024-01-16T15:23:54;-6.60;99.90
57386;DHT22;71829;56.976;21.958;2024-01-16T15:26:21;-5.40;99.90
57386;DHT22;71829;56.976;21.958;2024-01-16T15:28:49;-5.90;99.90
57386;DHT22;71829;56.976;21.958;2024-01-16T15:31:17;-7.00;99.90
57386;DHT22;71829;56.976;21.958;2024-01-16T15:33:45;-7.20;99.90
57386;DHT22;71829;56.976;21.958;2024-01-16T15:36:12;-7.30;99.90
57386;DHT22;71829;56.976;21.958;2024-01-16T15:38:39;-7.30;99.90
57386;DHT22;71829;56.976;21.958;2024-01-16T15:41:07;-6.20;99.90
57386;DHT22;71829;56.976;21.958;2024-01-16T15:43:34;-5.20;99.90
57386;DHT22;71829;56.976;21.958;2024-01-16T15:46:02;-7.90;99.90
57386;DHT22;71829;56.976;21.958;2024-01-16T15:48:29;-6.90;99.90
57386;DHT22;71829;56.976;21.958;2024-01-16T15:51:01;-8.00;99.90
57386;DHT22;71829;56.976;21.958;2024-01-16T15:53:34;-7.70;99.90
57386;DHT22;71829;56.976;21.958;2024-01-16T15:56:02;-8.20;99.90
57386;DHT22;71829;56.976;21.958;2024-01-16T15:58:32;-8.20;99.90
57386;DHT22;71829;56.976;21.958;2024-01-16T16:00:59;-8.40;99.90
57386;DHT22;71829;56.976;21.958;2024-01-16T16:03:27;-9.90;99.90
57386;DHT22;71829;56.976;21.958;2024-01-16T16:05:54;-8.50;99.90
57386;DHT22;71829;56.976;21.958;2024-01-16T16:08:21;-8.60;99.90
57386;DHT22;71829;56.976;21.958;2024-01-16T16:10:49;-8.60;99.90
57386;DHT22;71829;56.976;21.958;2024-01-16T16:13:17;-6.90;99.90
57386;DHT22;71829;56.976;21.958;2024-01-16T16:15:44;-8.00;99.90
57386;DHT22;71829;56.976;21.958;2024-01-16T16:18:13;-9.00;99.90
57386;DHT22;71829;56.976;21.958;2024-01-16T16:20:40;-7.90;99.90
57386;DHT22;71829;56.976;21.958;2024-01-16T17:25:21;-7.20;99.90
57386;DHT22;71829;56.976;21.958;2024-01-16T17:27:48;-7.20;99.90
57386;DHT22;71829;56.976;21.958;2024-01-16T17:30:16;-7.30;99.90
57386;DHT22;71829;56.976;21.958;2024-01-16T17:32:43;-7.20;99.90
57386;DHT22;71829;56.976;21.958;2024-01-16T17:35:10;-7.20;99.90
57386;DHT22;71829;56.976;21.958;2024-01-16T17:37:40;-6.40;99.90
57386;DHT22;71829;56.976;21.958;2024-01-16T17:40:08;-7.30;99.90
57386;DHT22;71829;56.976;21.958;2024-01-16T17:42:39;-7.30;99.90
57386;DHT22;71829;56.976;21.958;2024-01-16T17:45:16;-7.30;99.90
57386;DHT22;71829;56.976;21.958;2024-01-16T17:47:43;-7.30;99.90
57386;DHT22;71829;56.976;21.958;2024-01-16T17:50:11;-7.20;99.90
57386;DHT22;71829;56.976;21.958;2024-01-16T17:52:39;-7.10;99.90
57386;DHT22;71829;56.976;21.958;2024-01-16T17:55:10;-7.10;99.90
57386;DHT22;71829;56.976;21.958;2024-01-16T17:57:38;-7.20;99.90
57386;DHT22;71829;56.976;21.958;2024-01-16T18:00:11;-7.00;99.90
57386;DHT22;71829;56.976;21.958;2024-01-16T18:02:38;-6.80;99.90
57386;DHT22;71829;56.976;21.958;2024-01-16T18:05:07;-6.90;99.90
57386;DHT22;71829;56.976;21.958;2024-01-16T18:07:37;-6.80;99.90
57386;DHT22;71829;56.976;21.958;2024-01-16T18:10:05;-6.80;99.90
57386;DHT22;71829;56.976;21.958;2024-01-16T18:12:39;-6.70;99.90
57386;DHT22;71829;56.976;21.958;2024-01-16T18:15:08;-5.60;99.90
57386;DHT22;71829;56.976;21.958;2024-01-16T18:17:42;-4.70;99.90
57386;DHT22;71829;56.976;21.958;2024-01-16T18:20:13;-7.20;99.90
57386;DHT22;71829;56.976;21.958;2024-01-16T18:22:44;-6.90;99.90
57386;DHT22;71829;56.976;21.958;2024-01-16T18:25:11;-7.00;99.90
57386;DHT22;71829;56.976;21.958;2024-01-16T18:27:41;-6.90;99.90
57386;DHT22;71829;56.976;21.958;2024-01-16T18:30:14;-6.30;99.90
57386;DHT22;71829;56.976;21.958;2024-01-16T18:32:43;-7.00;99.90
57386;DHT22;71829;56.976;21.958;2024-01-16T18:35:11;-6.90;99.90
57386;DHT22;71829;56.976;21.958;2024-01-16T18:37:44;-6.80;99.90
57386;DHT22;71829;56.976;21.958;2024-01-16T18:40:14;-6.80;99.90
57386;DHT22;71829;56.976;21.958;2024-01-16T18:42:45;-5.70;99.90
57386;DHT22;71829;56.976;21.958;2024-01-16T18:45:12;-6.60;99.90
57386;DHT22;71829;56.976;21.958;2024-01-16T18:47:39;-6.50;99.90
57386;DHT22;71829;56.976;21.958;2024-01-16T18:50:10;-6.40;99.90
57386;DHT22;71829;56.976;21.958;2024-01-16T18:52:40;-6.40;99.90
57386;DHT22;71829;56.976;21.958;2024-01-16T18:55:09;-6.60;99.90
57386;DHT22;71829;56.976;21.958;2024-01-16T18:57:39;-6.30;99.90
57386;DHT22;71829;56.976;21.958;2024-01-16T19:00:11;-6.40;99.90
57386;DHT22;71829;56.976;21.958;2024-01-16T19:02:41;-6.20;99.90
57386;DHT22;71829;56.976;21.958;2024-01-16T19:07:45;-4.80;99.90
57386;DHT22;71829;56.976;21.958;2024-01-16T19:10:13;-6.70;99.90
57386;DHT22;71829;56.976;21.958;2024-01-16T19:12:43;-6.20;99.90
57386;DHT22;71829;56.976;21.958;2024-01-16T19:15:15;-6.30;99.90
57386;DHT22;71829;56.976;21.958;2024-01-16T19:17:47;-6.20;99.90
57386;DHT22;71829;56.976;21.958;2024-01-16T19:20:15;-4.60;99.90
57386;DHT22;71829;56.976;21.958;2024-01-16T19:22:44;-6.20;99.90
57386;DHT22;71829;56.976;21.958;2024-01-16T19:25:14;-6.20;99.90
57386;DHT22;71829;56.976;21.958;2024-01-16T19:27:44;-6.20;99.90
57386;DHT22;71829;56.976;21.958;2024-01-16T19:30:15;-6.30;99.90
57386;DHT22;71829;56.976;21.958;2024-01-16T19:32:47;-6.30;99.90
57386;DHT22;71829;56.976;21.958;2024-01-16T19:35:16;-6.50;99.90
57386;DHT22;71829;56.976;21.958;2024-01-16T19:37:44;-6.60;99.90
57386;DHT22;71829;56.976;21.958;2024-01-16T19:40:12;-8.80;99.90
57386;DHT22;71829;56.976;21.958;2024-01-16T19:42:43;-6.60;99.90
57386;DHT22;71829;56.976;21.958;2024-01-16T19:45:10;-7.10;99.90
57386;DHT22;71829;56.976;21.958;2024-01-16T19:47:39;-8.80;99.90
57386;DHT22;71829;56.976;21.958;2024-01-16T19:50:08;-5.50;99.90
57386;DHT22;71829;56.976;21.958;2024-01-16T19:52:50;-7.10;99.90
57386;DHT22;71829;56.976;21.958;2024-01-16T19:55:19;-7.20;99.90
57386;DHT22;71829;56.976;21.958;2024-01-16T19:57:52;-4.00;99.90
57386;DHT22;71829;56.976;21.958;2024-01-16T20:00:21;-7.10;99.90
57386;DHT22;71829;56.976;21.958;2024-01-16T20:03:00;-10.10;99.90
57386;DHT22;71829;56.976;21.958;2024-01-16T20:05:35;-5.40;99.90
57386;DHT22;71829;56.976;21.958;2024-01-16T20:08:13;-5.70;99.90
57386;DHT22;71829;56.976;21.958;2024-01-16T20:10:42;-6.20;99.90
57386;DHT22;71829;56.976;21.958;2024-01-16T20:13:11;-4.10;99.90
57386;DHT22;71829;56.976;21.958;2024-01-16T20:15:39;-4.60;99.90
57386;DHT22;71829;56.976;21.958;2024-01-16T20:18:06;-10.10;99.90
57386;DHT22;71829;56.976;21.958;2024-01-16T20:20:36;-7.20;99.90
57386;DHT22;71829;56.976;21.958;2024-01-16T20:23:03;-7.20;99.90
57386;DHT22;71829;56.976;21.958;2024-01-16T20:25:30;-9.60;99.90
57386;DHT22;71829;56.976;21.958;2024-01-16T20:27:58;-7.30;99.90
57386;DHT22;71829;56.976;21.958;2024-01-16T20:30:26;-5.90;99.90